createdAt,value
2023-04-15T00:00:29.725Z,238.55
2023-04-15T00:01:29.736Z,239.97
2023-04-15T00:02:29.876Z,239.26
2023-04-15T00:03:30.084Z,238.94
2023-04-15T00:04:29.863Z,238.89
2023-04-15T00:05:29.748Z,238.83
2023-04-15T00:06:29.760Z,238.63
2023-04-15T00:07:29.750Z,239.37
2023-04-15T00:08:29.757Z,239.17
2023-04-15T00:09:29.745Z,238.80
2023-04-15T00:10:29.742Z,238.18
2023-04-15T00:11:29.751Z,238.31
2023-04-15T00:12:29.758Z,237.72
2023-04-15T00:13:29.771Z,238.49
2023-04-15T00:14:29.779Z,239.25
2023-04-15T00:15:29.767Z,239.28
2023-04-15T00:16:29.816Z,239.27
2023-04-15T00:17:29.810Z,239.58
2023-04-15T00:18:29.775Z,239.46
2023-04-15T00:19:29.781Z,238.91
2023-04-15T00:20:29.779Z,238.92
2023-04-15T00:21:29.783Z,238.75
2023-04-15T00:22:29.785Z,238.11
2023-04-15T00:23:29.788Z,238.85
2023-04-15T00:24:29.786Z,238.79
2023-04-15T00:25:29.801Z,238.57
2023-04-15T00:26:29.849Z,238.47
2023-04-15T00:27:29.916Z,239.35
2023-04-15T00:28:29.956Z,238.45
2023-04-15T00:29:30.014Z,238.84
2023-04-15T00:30:30.248Z,238.93
2023-04-15T00:31:30.205Z,237.97
2023-04-15T00:32:30.203Z,238.65
2023-04-15T00:33:30.270Z,239.19
2023-04-15T00:34:30.306Z,238.92
2023-04-15T00:35:30.374Z,238.02
2023-04-15T00:36:30.440Z,239.08
2023-04-15T00:37:30.488Z,237.91
2023-04-15T00:38:30.553Z,238.06
2023-04-15T00:39:30.605Z,237.57
2023-04-15T00:40:30.665Z,238.13
2023-04-15T00:41:30.724Z,238.15
2023-04-15T00:42:30.801Z,237.84
2023-04-15T00:43:30.862Z,237.60
2023-04-15T00:44:30.909Z,238.10
2023-04-15T00:45:31.040Z,238.03
2023-04-15T00:46:30.981Z,238.11
2023-04-15T00:47:30.990Z,238.22
2023-04-15T00:48:30.985Z,238.29
2023-04-15T00:49:30.980Z,238.51
2023-04-15T00:50:30.986Z,237.59
2023-04-15T00:51:31.002Z,237.66
2023-04-15T00:52:30.995Z,238.90
2023-04-15T00:53:31.013Z,239.15
2023-04-15T00:54:31.010Z,238.19
2023-04-15T00:55:31.057Z,237.76
2023-04-15T00:56:31.105Z,238.13
2023-04-15T00:57:31.176Z,238.22
2023-04-15T00:58:31.238Z,237.47
2023-04-15T00:59:31.304Z,237.80
2023-04-15T01:00:31.360Z,237.17
2023-04-15T01:01:31.453Z,238.38
2023-04-15T01:02:31.712Z,238.19
2023-04-15T01:03:31.614Z,238.47
2023-04-15T01:04:31.734Z,238.32
2023-04-15T01:05:31.661Z,238.64
2023-04-15T01:06:31.723Z,237.56
2023-04-15T01:07:31.800Z,238.45
2023-04-15T01:08:31.894Z,237.30
2023-04-15T01:09:31.930Z,237.26
2023-04-15T01:10:32.005Z,238.33
2023-04-15T01:11:32.060Z,237.80
2023-04-15T01:12:32.145Z,237.91
2023-04-15T01:13:32.176Z,238.23
2023-04-15T01:14:32.253Z,237.54
2023-04-15T01:15:32.311Z,238.65
2023-04-15T01:16:32.434Z,237.23
2023-04-15T01:17:32.505Z,237.96
2023-04-15T01:18:32.501Z,237.89
2023-04-15T01:19:32.595Z,238.55
2023-04-15T01:20:32.631Z,238.37
2023-04-15T01:21:32.696Z,237.62
2023-04-15T01:22:32.766Z,237.28
2023-04-15T01:23:32.842Z,236.85
2023-04-15T01:24:32.902Z,237.72
2023-04-15T01:25:32.980Z,237.58
2023-04-15T01:26:33.037Z,238.16
2023-04-15T01:27:33.098Z,237.37
2023-04-15T01:28:33.160Z,237.98
2023-04-15T01:29:33.233Z,237.04
2023-04-15T01:30:33.292Z,237.85
2023-04-15T01:31:33.396Z,237.56
2023-04-15T01:32:33.472Z,236.50
2023-04-15T01:33:33.506Z,237.17
2023-04-15T01:34:35.617Z,237.43
2023-04-15T01:35:33.620Z,236.76
2023-04-15T01:36:33.678Z,237.47
2023-04-15T01:37:33.758Z,236.87
2023-04-15T01:38:33.897Z,236.92
2023-04-15T01:39:33.901Z,237.37
2023-04-15T01:40:33.953Z,237.27
2023-04-15T01:41:34.029Z,236.91
2023-04-15T01:42:34.096Z,237.92
2023-04-15T01:43:34.158Z,237.40
2023-04-15T01:44:34.240Z,237.95
2023-04-15T01:45:34.307Z,237.46
2023-04-15T01:46:34.411Z,237.57
2023-04-15T01:47:34.489Z,237.34
2023-04-15T01:48:34.518Z,237.78
2023-04-15T01:49:34.603Z,236.68
2023-04-15T01:50:34.672Z,237.58
2023-04-15T01:51:34.743Z,237.88
2023-04-15T01:52:34.816Z,237.61
2023-04-15T01:53:34.899Z,236.94
2023-04-15T01:54:34.974Z,237.53
2023-04-15T01:55:35.052Z,236.30
2023-04-15T01:56:35.115Z,236.60
2023-04-15T01:57:35.187Z,237.99
2023-04-15T01:58:35.258Z,238.29
2023-04-15T01:59:35.322Z,237.94
2023-04-15T02:00:35.451Z,236.31
2023-04-15T02:01:35.458Z,237.84
2023-04-15T02:02:35.687Z,236.09
2023-04-15T02:03:35.652Z,236.66
2023-04-15T02:04:35.673Z,237.54
2023-04-15T02:05:35.743Z,237.00
2023-04-15T02:06:35.812Z,237.05
2023-04-15T02:07:35.885Z,236.27
2023-04-15T02:08:35.966Z,236.28
2023-04-15T02:09:36.048Z,236.80
2023-04-15T02:10:36.111Z,236.98
2023-04-15T02:11:36.165Z,235.97
2023-04-15T02:12:36.220Z,237.64
2023-04-15T02:13:36.333Z,236.74
2023-04-15T02:14:36.338Z,237.40
2023-04-15T02:15:36.392Z,236.32
2023-04-15T02:16:36.540Z,236.60
2023-04-15T02:17:36.570Z,236.75
2023-04-15T02:18:36.593Z,237.13
2023-04-15T02:19:36.681Z,236.21
2023-04-15T02:20:36.723Z,236.39
2023-04-15T02:21:36.802Z,235.87
2023-04-15T02:22:36.874Z,236.30
2023-04-15T02:23:36.943Z,235.61
2023-04-15T02:24:37.005Z,236.07
2023-04-15T02:25:37.082Z,236.93
2023-04-15T02:26:37.140Z,236.87
2023-04-15T02:27:37.207Z,236.73
2023-04-15T02:28:37.260Z,236.40
2023-04-15T02:29:37.318Z,236.10
2023-04-15T02:30:37.362Z,237.25
2023-04-15T02:31:37.442Z,235.78
2023-04-15T02:32:37.522Z,236.47
2023-04-15T02:33:37.545Z,236.14
2023-04-15T02:34:37.632Z,235.55
2023-04-15T02:35:37.699Z,235.57
2023-04-15T02:36:37.764Z,235.46
2023-04-15T02:37:37.839Z,236.43
2023-04-15T02:38:37.916Z,236.66
2023-04-15T02:39:37.990Z,235.63
2023-04-15T02:40:38.049Z,235.21
2023-04-15T02:41:38.116Z,235.65
2023-04-15T02:42:38.197Z,235.66
2023-04-15T02:43:38.265Z,235.62
2023-04-15T02:44:38.374Z,234.74
2023-04-15T02:45:38.473Z,236.48
2023-04-15T02:46:38.503Z,235.78
2023-04-15T02:47:38.585Z,235.95
2023-04-15T02:48:38.625Z,236.32
2023-04-15T02:49:38.690Z,235.18
2023-04-15T02:50:38.779Z,236.05
2023-04-15T02:51:38.848Z,236.67
2023-04-15T02:52:38.920Z,235.72
2023-04-15T02:53:38.997Z,236.49
2023-04-15T02:54:39.073Z,235.61
2023-04-15T02:55:39.128Z,235.67
2023-04-15T02:56:39.205Z,235.35
2023-04-15T02:57:39.294Z,235.95
2023-04-15T02:58:39.347Z,235.52
2023-04-15T02:59:39.439Z,232.28
2023-04-15T03:00:39.499Z,225.61
2023-04-15T03:01:39.637Z,223.19
2023-04-15T03:02:39.709Z,218.46
2023-04-15T03:03:39.675Z,216.74
2023-04-15T03:04:39.620Z,214.93
2023-04-15T03:05:39.628Z,209.04
2023-04-15T03:06:39.620Z,206.19
2023-04-15T03:07:39.623Z,202.17
2023-04-15T03:08:39.643Z,199.61
2023-04-15T03:09:39.648Z,195.24
2023-04-15T03:10:39.666Z,192.41
2023-04-15T03:11:39.666Z,188.53
2023-04-15T03:12:39.664Z,184.74
2023-04-15T03:13:39.676Z,183.07
2023-04-15T03:14:39.670Z,179.52
2023-04-15T03:15:39.690Z,176.04
2023-04-15T03:16:39.684Z,173.42
2023-04-15T03:17:39.729Z,170.57
2023-04-15T03:18:39.742Z,168.28
2023-04-15T03:19:39.812Z,166.25
2023-04-15T03:20:39.948Z,162.86
2023-04-15T03:21:39.972Z,160.21
2023-04-15T03:22:40.034Z,157.91
2023-04-15T03:23:40.088Z,154.77
2023-04-15T03:24:40.133Z,152.42
2023-04-15T03:25:40.208Z,149.91
2023-04-15T03:26:40.277Z,147.70
2023-04-15T03:27:40.305Z,145.78
2023-04-15T03:28:40.315Z,143.57
2023-04-15T03:29:40.396Z,141.81
2023-04-15T03:30:40.425Z,140.08
2023-04-15T03:31:40.520Z,137.83
2023-04-15T03:32:40.527Z,136.27
2023-04-15T03:33:40.491Z,134.67
2023-04-15T03:34:40.493Z,133.96
2023-04-15T03:35:40.540Z,131.33
2023-04-15T03:36:40.539Z,129.73
2023-04-15T03:37:40.533Z,128.64
2023-04-15T03:38:40.537Z,127.71
2023-04-15T03:39:40.547Z,126.70
2023-04-15T03:40:40.577Z,125.55
2023-04-15T03:41:40.580Z,124.39
2023-04-15T03:42:40.608Z,124.09
2023-04-15T03:43:40.604Z,122.90
2023-04-15T03:44:40.613Z,122.91
2023-04-15T03:45:40.612Z,121.99
2023-04-15T03:46:40.668Z,120.08
2023-04-15T03:47:40.765Z,119.45
2023-04-15T03:48:40.616Z,118.66
2023-04-15T03:49:40.615Z,117.35
2023-04-15T03:50:40.624Z,117.38
2023-04-15T03:51:40.638Z,115.93
2023-04-15T03:52:40.635Z,115.26
2023-04-15T03:53:40.624Z,114.07
2023-04-15T03:54:40.638Z,112.71
2023-04-15T03:55:40.630Z,111.62
2023-04-15T03:56:40.632Z,110.53
2023-04-15T03:57:40.634Z,109.78
2023-04-15T03:58:40.633Z,108.54
2023-04-15T03:59:40.632Z,107.56
2023-04-15T04:00:40.652Z,107.05
2023-04-15T04:01:40.656Z,105.37
2023-04-15T04:02:40.915Z,104.75
2023-04-15T04:03:40.760Z,104.18
2023-04-15T04:04:40.700Z,103.65
2023-04-15T04:05:40.664Z,104.24
2023-04-15T04:06:40.675Z,102.50
2023-04-15T04:07:40.685Z,103.00
2023-04-15T04:08:40.714Z,102.78
2023-04-15T04:09:40.741Z,101.42
2023-04-15T04:10:40.800Z,100.56
2023-04-15T04:11:40.811Z,99.28
2023-04-15T04:12:40.868Z,98.48
2023-04-15T04:13:40.899Z,96.44
2023-04-15T04:14:40.948Z,95.75
2023-04-15T04:15:40.975Z,94.42
2023-04-15T04:16:41.033Z,94.14
2023-04-15T04:17:41.065Z,94.03
2023-04-15T04:18:41.054Z,92.76
2023-04-15T04:19:41.089Z,90.86
2023-04-15T04:20:41.125Z,88.54
2023-04-15T04:21:41.150Z,85.84
2023-04-15T04:22:41.185Z,82.97
2023-04-15T04:23:41.220Z,81.59
2023-04-15T04:24:41.263Z,79.15
2023-04-15T04:25:41.293Z,79.91
2023-04-15T04:26:41.325Z,78.42
2023-04-15T04:27:41.361Z,78.53
2023-04-15T04:28:41.398Z,77.15
2023-04-15T04:29:41.434Z,78.26
2023-04-15T04:30:41.480Z,78.07
2023-04-15T04:31:41.587Z,76.99
2023-04-15T04:32:41.583Z,77.06
2023-04-15T04:33:41.584Z,76.63
2023-04-15T04:34:41.649Z,76.02
2023-04-15T04:35:41.661Z,76.07
2023-04-15T04:36:41.700Z,75.63
2023-04-15T04:37:41.748Z,74.28
2023-04-15T04:38:41.785Z,73.48
2023-04-15T04:39:41.834Z,73.09
2023-04-15T04:40:41.861Z,73.17
2023-04-15T04:41:41.895Z,72.79
2023-04-15T04:42:41.942Z,71.68
2023-04-15T04:43:41.993Z,70.81
2023-04-15T04:44:42.031Z,69.71
2023-04-15T04:45:42.119Z,69.44
2023-04-15T04:46:42.115Z,69.59
2023-04-15T04:47:42.236Z,69.79
2023-04-15T04:48:42.224Z,69.55
2023-04-15T04:49:42.311Z,69.83
2023-04-15T04:50:42.332Z,69.93
2023-04-15T04:51:42.371Z,69.87
2023-04-15T04:52:42.425Z,69.55
2023-04-15T04:53:42.474Z,68.07
2023-04-15T04:54:42.532Z,67.08
2023-04-15T04:55:42.598Z,67.35
2023-04-15T04:56:42.631Z,64.93
2023-04-15T04:57:42.697Z,64.95
2023-04-15T04:58:42.747Z,63.11
2023-04-15T04:59:42.773Z,62.93
2023-04-15T05:00:42.779Z,60.58
2023-04-15T05:01:42.892Z,58.69
2023-04-15T05:02:42.877Z,58.15
2023-04-15T05:03:42.899Z,57.92
2023-04-15T05:04:42.796Z,57.84
2023-04-15T05:05:42.805Z,56.77
2023-04-15T05:06:42.828Z,56.98
2023-04-15T05:07:42.834Z,57.72
2023-04-15T05:08:42.829Z,56.21
2023-04-15T05:09:42.841Z,55.33
2023-04-15T05:10:42.844Z,54.95
2023-04-15T05:11:42.891Z,56.23
2023-04-15T05:12:42.877Z,54.57
2023-04-15T05:13:42.872Z,54.86
2023-04-15T05:14:42.884Z,56.13
2023-04-15T05:15:42.969Z,57.74
2023-04-15T05:16:42.917Z,57.76
2023-04-15T05:17:42.935Z,59.44
2023-04-15T05:18:42.989Z,60.29
2023-04-15T05:19:43.076Z,60.93
2023-04-15T05:20:43.135Z,61.73
2023-04-15T05:21:43.179Z,62.60
2023-04-15T05:22:43.239Z,64.03
2023-04-15T05:23:43.292Z,65.01
2023-04-15T05:24:43.369Z,65.96
2023-04-15T05:25:43.419Z,66.70
2023-04-15T05:26:43.485Z,66.81
2023-04-15T05:27:43.518Z,66.85
2023-04-15T05:28:43.511Z,66.91
2023-04-15T05:29:43.514Z,67.74
2023-04-15T05:30:43.533Z,68.80
2023-04-15T05:31:43.571Z,70.73
2023-04-15T05:32:43.634Z,71.95
2023-04-15T05:33:43.551Z,72.76
2023-04-15T05:34:43.564Z,72.54
2023-04-15T05:35:43.565Z,71.68
2023-04-15T05:36:43.604Z,72.59
2023-04-15T05:37:43.673Z,71.97
2023-04-15T05:38:43.670Z,72.01
2023-04-15T05:39:43.679Z,71.97
2023-04-15T05:40:43.692Z,71.14
2023-04-15T05:41:43.716Z,70.98
2023-04-15T05:42:43.716Z,71.33
2023-04-15T05:43:43.741Z,69.94
2023-04-15T05:44:43.742Z,69.55
2023-04-15T05:45:43.747Z,69.11
2023-04-15T05:46:43.864Z,66.96
2023-04-15T05:47:43.904Z,65.92
2023-04-15T05:48:43.937Z,64.67
2023-04-15T05:49:43.984Z,65.03
2023-04-15T05:50:44.078Z,64.42
2023-04-15T05:51:44.141Z,63.87
2023-04-15T05:52:44.198Z,63.42
2023-04-15T05:53:44.272Z,64.76
2023-04-15T05:54:44.339Z,62.19
2023-04-15T05:55:44.406Z,61.69
2023-04-15T05:56:44.479Z,61.06
2023-04-15T05:57:44.529Z,60.97
2023-04-15T05:58:44.598Z,58.89
2023-04-15T05:59:44.663Z,58.55
2023-04-15T06:00:44.732Z,58.96
2023-04-15T06:01:44.809Z,58.38
2023-04-15T06:02:45.031Z,57.66
2023-04-15T06:03:45.056Z,56.00
2023-04-15T06:04:45.087Z,57.31
2023-04-15T06:05:45.113Z,57.74
2023-04-15T06:06:45.187Z,57.78
2023-04-15T06:07:46.700Z,58.94
2023-04-15T06:08:45.251Z,58.45
2023-04-15T06:09:45.259Z,58.46
2023-04-15T06:10:45.280Z,57.74
2023-04-15T06:11:45.294Z,58.22
2023-04-15T06:12:45.313Z,58.19
2023-04-15T06:13:45.324Z,56.87
2023-04-15T06:14:45.331Z,57.20
2023-04-15T06:15:45.340Z,56.53
2023-04-15T06:16:45.363Z,55.08
2023-04-15T06:17:45.372Z,53.60
2023-04-15T06:18:45.418Z,52.75
2023-04-15T06:19:45.511Z,51.91
2023-04-15T06:20:45.560Z,49.94
2023-04-15T06:21:45.627Z,49.47
2023-04-15T06:22:45.691Z,49.36
2023-04-15T06:23:45.781Z,48.66
2023-04-15T06:24:45.838Z,47.19
2023-04-15T06:25:45.925Z,46.26
2023-04-15T06:26:46.006Z,46.13
2023-04-15T06:27:46.062Z,45.56
2023-04-15T06:28:46.142Z,44.44
2023-04-15T06:29:46.231Z,43.28
2023-04-15T06:30:46.268Z,43.87
2023-04-15T06:31:46.394Z,43.90
2023-04-15T06:32:46.445Z,43.35
2023-04-15T06:33:46.482Z,41.93
2023-04-15T06:34:46.548Z,40.80
2023-04-15T06:35:46.618Z,39.81
2023-04-15T06:36:46.683Z,39.30
2023-04-15T06:37:46.762Z,35.64
2023-04-15T06:38:46.808Z,32.77
2023-04-15T06:39:46.871Z,29.48
2023-04-15T06:40:46.940Z,27.77
2023-04-15T06:41:47.008Z,25.00
2023-04-15T06:42:47.081Z,25.00
2023-04-15T06:43:47.128Z,25.41
2023-04-15T06:44:47.153Z,23.67
2023-04-15T06:45:47.210Z,21.23
2023-04-15T06:46:47.159Z,19.54
2023-04-15T06:47:47.158Z,16.83
2023-04-15T06:48:47.155Z,15.74
2023-04-15T06:49:47.163Z,25.00
2023-04-15T06:50:47.184Z,25.00
2023-04-15T06:51:47.182Z,25.00
2023-04-15T06:52:47.189Z,25.09
2023-04-15T06:53:47.192Z,25.00
2023-04-15T06:54:47.240Z,25.00
2023-04-15T06:55:47.308Z,25.00
2023-04-15T06:56:47.364Z,25.00
2023-04-15T06:57:47.426Z,25.18
2023-04-15T06:58:47.476Z,25.57
2023-04-15T06:59:47.538Z,25.95
2023-04-15T07:00:47.623Z,25.00
2023-04-15T07:01:47.704Z,25.30
2023-04-15T07:02:47.876Z,25.03
2023-04-15T07:03:47.817Z,25.75
2023-04-15T07:04:47.857Z,25.00
2023-04-15T07:05:47.916Z,26.74
2023-04-15T07:06:47.972Z,25.77
2023-04-15T07:07:48.029Z,24.91
2023-04-15T07:08:48.074Z,25.00
2023-04-15T07:09:48.138Z,25.97
2023-04-15T07:10:48.218Z,25.71
2023-04-15T07:11:48.249Z,25.00
2023-04-15T07:12:48.311Z,25.16
2023-04-15T07:13:48.354Z,24.85
2023-04-15T07:14:48.410Z,25.69
2023-04-15T07:15:48.459Z,25.00
2023-04-15T07:16:48.608Z,25.00
2023-04-15T07:17:48.603Z,25.00
2023-04-15T07:18:48.629Z,25.62
2023-04-15T07:19:48.684Z,25.00
2023-04-15T07:20:48.739Z,25.25
2023-04-15T07:21:48.796Z,24.99
2023-04-15T07:22:48.833Z,25.34
2023-04-15T07:23:48.915Z,25.00
2023-04-15T07:24:48.888Z,22.45
2023-04-15T07:25:48.902Z,18.63
2023-04-15T07:26:48.910Z,15.75
2023-04-15T07:27:48.919Z,13.22
2023-04-15T07:28:48.920Z,10.83
2023-04-15T07:29:48.922Z,17.70
2023-04-15T07:30:48.968Z,24.09
2023-04-15T07:31:48.949Z,25.33
2023-04-15T07:32:48.974Z,25.56
2023-04-15T07:33:48.951Z,25.05
2023-04-15T07:34:48.940Z,26.37
2023-04-15T07:35:48.951Z,26.68
2023-04-15T07:36:48.955Z,26.52
2023-04-15T07:37:48.950Z,26.01
2023-04-15T07:38:48.955Z,25.85
2023-04-15T07:39:48.958Z,25.00
2023-04-15T07:40:48.981Z,26.79
2023-04-15T07:41:49.036Z,26.84
2023-04-15T07:42:49.058Z,25.26
2023-04-15T07:43:49.083Z,25.11
2023-04-15T07:44:49.108Z,25.09
2023-04-15T07:45:49.182Z,25.36
2023-04-15T07:46:49.185Z,26.30
2023-04-15T07:47:49.247Z,25.00
2023-04-15T07:48:49.265Z,25.52
2023-04-15T07:49:49.311Z,26.95
2023-04-15T07:50:49.318Z,29.01
2023-04-15T07:51:49.362Z,28.40
2023-04-15T07:52:49.409Z,27.17
2023-04-15T07:53:49.442Z,26.58
2023-04-15T07:54:49.483Z,25.12
2023-04-15T07:55:49.518Z,25.45
2023-04-15T07:56:49.547Z,26.17
2023-04-15T07:57:49.591Z,25.86
2023-04-15T07:58:49.598Z,24.92
2023-04-15T07:59:49.626Z,25.18
2023-04-15T08:00:49.701Z,25.01
2023-04-15T08:01:49.693Z,25.72
2023-04-15T08:02:49.918Z,25.45
2023-04-15T08:03:49.832Z,25.14
2023-04-15T08:04:49.809Z,25.24
2023-04-15T08:05:49.774Z,25.00
2023-04-15T08:06:49.809Z,25.51
2023-04-15T08:07:49.840Z,25.36
2023-04-15T08:08:49.850Z,25.84
2023-04-15T08:09:49.878Z,27.07
2023-04-15T08:10:51.400Z,26.44
2023-04-15T08:11:50.102Z,26.26
2023-04-15T08:12:50.143Z,25.19
2023-04-15T08:13:50.155Z,25.00
2023-04-15T08:14:50.157Z,25.00
2023-04-15T08:15:50.230Z,25.11
2023-04-15T08:16:50.212Z,25.00
2023-04-15T08:17:50.269Z,25.92
2023-04-15T08:18:50.234Z,25.00
2023-04-15T08:19:50.263Z,25.00
2023-04-15T08:20:50.253Z,25.18
2023-04-15T08:21:50.285Z,25.05
2023-04-15T08:22:50.290Z,25.36
2023-04-15T08:23:50.294Z,25.30
2023-04-15T08:24:50.294Z,25.06
2023-04-15T08:25:50.309Z,25.41
2023-04-15T08:26:50.321Z,26.41
2023-04-15T08:27:50.330Z,27.43
2023-04-15T08:28:50.348Z,26.21
2023-04-15T08:29:50.369Z,25.55
2023-04-15T08:30:50.381Z,25.06
2023-04-15T08:31:50.424Z,25.54
2023-04-15T08:32:50.421Z,25.00
2023-04-15T08:33:50.418Z,25.65
2023-04-15T08:34:50.425Z,25.41
2023-04-15T08:35:50.440Z,25.27
2023-04-15T08:36:50.459Z,25.03
2023-04-15T08:37:50.463Z,25.00
2023-04-15T08:38:50.487Z,25.73
2023-04-15T08:39:50.471Z,25.00
2023-04-15T08:40:50.475Z,25.20
2023-04-15T08:41:50.483Z,25.58
2023-04-15T08:42:50.502Z,25.84
2023-04-15T08:43:50.478Z,26.14
2023-04-15T08:44:50.496Z,26.25
2023-04-15T08:45:50.500Z,26.82
2023-04-15T08:46:50.559Z,27.88
2023-04-15T08:47:50.675Z,28.37
2023-04-15T08:48:50.624Z,29.21
2023-04-15T08:49:50.672Z,30.07
2023-04-15T08:50:50.716Z,30.06
2023-04-15T08:51:50.787Z,29.77
2023-04-15T08:52:50.851Z,29.99
2023-04-15T08:53:50.837Z,29.99
2023-04-15T08:54:50.844Z,30.15
2023-04-15T08:55:50.847Z,31.11
2023-04-15T08:56:50.872Z,32.64
2023-04-15T08:57:50.830Z,34.21
2023-04-15T08:58:50.822Z,30.12
2023-04-15T08:59:50.823Z,30.65
2023-04-15T09:00:50.822Z,31.68
2023-04-15T09:01:50.858Z,34.36
2023-04-15T09:02:50.971Z,41.42
2023-04-15T09:03:51.005Z,46.80
2023-04-15T09:04:50.800Z,52.68
2023-04-15T09:05:52.700Z,57.21
2023-04-15T09:06:50.786Z,61.31
2023-04-15T09:07:50.837Z,65.68
2023-04-15T09:08:50.775Z,71.12
2023-04-15T09:09:50.762Z,75.59
2023-04-15T09:10:50.748Z,81.03
2023-04-15T09:11:50.799Z,86.87
2023-04-15T09:12:50.852Z,91.30
2023-04-15T09:13:50.901Z,97.28
2023-04-15T09:14:50.946Z,101.75
2023-04-15T09:15:51.009Z,104.92
2023-04-15T09:16:51.084Z,109.94
2023-04-15T09:17:51.143Z,114.65
2023-04-15T09:18:51.168Z,118.02
2023-04-15T09:19:51.189Z,121.38
2023-04-15T09:20:51.228Z,126.03
2023-04-15T09:21:51.261Z,129.41
2023-04-15T09:22:51.296Z,132.58
2023-04-15T09:23:51.328Z,136.06
2023-04-15T09:24:51.344Z,138.55
2023-04-15T09:25:51.365Z,142.20
2023-04-15T09:26:51.382Z,144.77
2023-04-15T09:27:51.406Z,147.42
2023-04-15T09:28:51.420Z,150.31
2023-04-15T09:29:51.428Z,153.47
2023-04-15T09:30:51.452Z,157.42
2023-04-15T09:31:51.448Z,158.75
2023-04-15T09:32:51.473Z,158.88
2023-04-15T09:33:51.433Z,159.66
2023-04-15T09:34:51.407Z,161.72
2023-04-15T09:35:51.394Z,164.82
2023-04-15T09:36:51.381Z,170.52
2023-04-15T09:37:51.376Z,172.89
2023-04-15T09:38:51.376Z,175.09
2023-04-15T09:39:51.356Z,177.81
2023-04-15T09:40:51.340Z,179.20
2023-04-15T09:41:51.320Z,181.49
2023-04-15T09:42:51.312Z,183.12
2023-04-15T09:43:51.295Z,185.00
2023-04-15T09:44:51.281Z,186.97
2023-04-15T09:45:51.295Z,189.06
2023-04-15T09:46:51.271Z,190.58
2023-04-15T09:47:51.304Z,192.89
2023-04-15T09:48:51.227Z,193.95
2023-04-15T09:49:51.262Z,196.36
2023-04-15T09:50:51.209Z,197.17
2023-04-15T09:52:04.084Z,199.26
2023-04-15T09:52:52.197Z,199.33
2023-04-15T09:53:51.181Z,199.69
2023-04-15T09:54:51.171Z,200.53
2023-04-15T09:55:51.163Z,202.51
2023-04-15T09:56:51.154Z,205.54
2023-04-15T09:57:51.122Z,207.14
2023-04-15T09:58:51.126Z,207.93
2023-04-15T09:59:51.122Z,209.56
2023-04-15T10:00:51.132Z,210.47
2023-04-15T10:01:51.182Z,211.66
2023-04-15T10:02:51.127Z,212.56
2023-04-15T10:03:51.140Z,213.76
2023-04-15T10:04:51.077Z,214.97
2023-04-15T10:05:51.066Z,216.09
2023-04-15T10:06:51.045Z,216.43
2023-04-15T10:07:51.037Z,218.34
2023-04-15T10:08:51.061Z,218.86
2023-04-15T10:09:51.039Z,219.20
2023-04-15T10:10:51.020Z,220.19
2023-04-15T10:11:51.068Z,221.65
2023-04-15T10:12:51.093Z,221.96
2023-04-15T10:13:51.150Z,222.95
2023-04-15T10:14:51.175Z,223.95
2023-04-15T10:15:51.238Z,223.84
2023-04-15T10:16:51.240Z,224.56
2023-04-15T10:17:51.459Z,225.92
2023-04-15T10:18:51.401Z,226.35
2023-04-15T10:19:51.384Z,227.40
2023-04-15T10:20:51.437Z,227.77
2023-04-15T10:21:51.477Z,228.27
2023-04-15T10:22:51.535Z,228.71
2023-04-15T10:23:51.586Z,228.91
2023-04-15T10:24:51.614Z,230.15
2023-04-15T10:25:51.666Z,231.06
2023-04-15T10:26:51.694Z,231.11
2023-04-15T10:27:51.743Z,232.14
2023-04-15T10:28:51.803Z,233.12
2023-04-15T10:29:51.853Z,232.96
2023-04-15T10:30:51.905Z,233.56
2023-04-15T10:31:52.001Z,233.68
2023-04-15T10:32:52.025Z,234.93
2023-04-15T10:33:52.036Z,235.58
2023-04-15T10:34:54.220Z,234.92
2023-04-15T10:35:52.119Z,235.46
2023-04-15T10:36:52.163Z,235.86
2023-04-15T10:37:52.156Z,235.89
2023-04-15T10:38:52.152Z,236.10
2023-04-15T10:39:52.142Z,236.52
2023-04-15T10:40:52.122Z,237.11
2023-04-15T10:41:52.114Z,237.95
2023-04-15T10:42:52.104Z,238.24
2023-04-15T10:43:52.085Z,237.54
2023-04-15T10:44:52.096Z,238.69
2023-04-15T10:45:52.073Z,238.96
2023-04-15T10:46:52.139Z,239.01
2023-04-15T10:47:52.083Z,239.44
2023-04-15T10:48:52.061Z,239.70
2023-04-15T10:49:52.066Z,239.47
2023-04-15T10:50:52.052Z,239.51
2023-04-15T10:51:52.056Z,239.63
2023-04-15T10:52:52.030Z,240.05
2023-04-15T10:53:52.021Z,240.46
2023-04-15T10:54:52.020Z,241.04
2023-04-15T10:55:52.000Z,241.68
2023-04-15T10:56:51.994Z,242.38
2023-04-15T10:57:51.972Z,241.97
2023-04-15T10:58:51.962Z,241.79
2023-04-15T10:59:51.966Z,241.89
2023-04-15T11:00:51.930Z,242.48
2023-04-15T11:01:52.094Z,242.73
2023-04-15T11:02:52.034Z,243.14
2023-04-15T11:03:52.186Z,243.63
2023-04-15T11:04:52.046Z,243.05
2023-04-15T11:05:52.043Z,244.06
2023-04-15T11:06:52.081Z,243.75
2023-04-15T11:07:52.113Z,244.11
2023-04-15T11:08:52.176Z,244.27
2023-04-15T11:09:52.199Z,244.10
2023-04-15T11:10:52.226Z,244.18
2023-04-15T11:11:52.266Z,244.61
2023-04-15T11:12:52.295Z,244.43
2023-04-15T11:13:52.324Z,245.12
2023-04-15T11:14:52.373Z,244.48
2023-04-15T11:15:52.417Z,244.23
2023-04-15T11:16:52.500Z,245.14
2023-04-15T11:17:52.533Z,245.19
2023-04-15T11:18:52.524Z,244.91
2023-04-15T11:19:52.570Z,245.39
2023-04-15T11:20:52.625Z,245.74
2023-04-15T11:21:52.643Z,245.82
2023-04-15T11:22:52.681Z,245.57
2023-04-15T11:23:53.669Z,245.65
2023-04-15T11:24:52.656Z,245.74
2023-04-15T11:25:52.637Z,245.90
2023-04-15T11:26:52.621Z,246.37
2023-04-15T11:27:52.608Z,246.29
2023-04-15T11:28:52.608Z,246.39
2023-04-15T11:29:52.629Z,247.08
2023-04-15T11:30:52.597Z,247.40
2023-04-15T11:31:52.650Z,247.03
2023-04-15T11:32:52.584Z,247.32
2023-04-15T11:33:52.549Z,247.70
2023-04-15T11:34:52.541Z,246.63
2023-04-15T11:35:52.536Z,247.49
2023-04-15T11:36:52.534Z,247.60
2023-04-15T11:37:52.516Z,247.43
2023-04-15T11:38:52.524Z,247.38
2023-04-15T11:39:52.584Z,247.38
2023-04-15T11:40:52.621Z,248.10
2023-04-15T11:41:52.648Z,247.01
2023-04-15T11:42:52.682Z,248.12
2023-04-15T11:43:52.729Z,247.41
2023-04-15T11:44:52.752Z,248.11
2023-04-15T11:45:52.968Z,248.30
2023-04-15T11:46:52.828Z,248.07
2023-04-15T11:47:52.888Z,247.92
2023-04-15T11:48:52.908Z,249.09
2023-04-15T11:49:52.950Z,248.56
2023-04-15T11:50:53.004Z,248.23
2023-04-15T11:51:53.026Z,248.51
2023-04-15T11:52:53.097Z,248.30
2023-04-15T11:53:53.112Z,248.61
2023-04-15T11:54:53.143Z,248.71
2023-04-15T11:55:53.169Z,248.76
2023-04-15T11:56:53.220Z,248.48
2023-04-15T11:57:53.256Z,249.10
2023-04-15T11:58:53.297Z,249.18
2023-04-15T11:59:53.336Z,249.36
2023-04-15T12:00:53.370Z,249.94
2023-04-15T12:01:53.439Z,249.47
2023-04-15T12:02:53.604Z,249.70
2023-04-15T12:03:53.582Z,248.76
2023-04-15T12:04:53.629Z,248.79
2023-04-15T12:05:53.516Z,249.55
2023-04-15T12:06:53.549Z,249.81
2023-04-15T12:07:53.556Z,249.55
2023-04-15T12:08:53.580Z,249.23
2023-04-15T12:09:53.614Z,249.24
2023-04-15T12:10:53.637Z,249.68
2023-04-15T12:11:53.654Z,249.08
2023-04-15T12:12:53.686Z,249.33
2023-04-15T12:13:53.689Z,249.21
2023-04-15T12:14:53.710Z,248.91
2023-04-15T12:15:53.791Z,249.19
2023-04-15T12:16:53.770Z,248.87
2023-04-15T12:17:53.820Z,248.64
2023-04-15T12:18:53.789Z,249.21
2023-04-15T12:19:53.797Z,249.24
2023-04-15T12:20:53.833Z,250.00
2023-04-15T12:21:53.846Z,249.38
2023-04-15T12:22:53.882Z,249.42
2023-04-15T12:23:53.877Z,249.89
2023-04-15T12:24:53.883Z,249.79
2023-04-15T12:25:53.921Z,249.11
2023-04-15T12:26:53.941Z,249.19
2023-04-15T12:27:53.959Z,249.47
2023-04-15T12:28:53.970Z,249.79
2023-04-15T12:29:53.991Z,248.93
2023-04-15T12:30:54.081Z,248.92
2023-04-15T12:31:54.038Z,249.50
2023-04-15T12:32:54.069Z,249.05
2023-04-15T12:33:54.067Z,248.61
2023-04-15T12:34:54.084Z,249.41
2023-04-15T12:35:54.118Z,248.95
2023-04-15T12:36:54.144Z,249.28
2023-04-15T12:37:54.177Z,249.00